Time;durP1;ratioP1;P1;durP2;ratioP2;P2;SDS_P1;SDS_P2;PMS_P1;PMS_P2;Temp;Humidity;BMP_temperature;BMP_pressure;BME280_temperature;BME280_humidity;BME280_pressure;Samples;Min_cycle;Max_cycle;Signal;HPM_P1;HPM_P2
2021/12/27 00:19:39;;;;;;;4.00;3.60;;;;;;;;;;4664004;27;20124;-69
2021/12/27 00:22:05;;;;;;;4.45;3.70;;;;;;;;;;4295014;33;20186;-69
2021/12/27 00:24:31;;;;;;;3.70;3.30;;;;;;;;;;4293974;33;20099;-69
2021/12/27 00:26:57;;;;;;;4.55;3.20;;;;;;;;;;4289294;33;20095;-82
2021/12/27 00:29:23;;;;;;;4.05;3.47;;;;;;;;;;4282678;33;20095;-69
2021/12/27 00:31:49;;;;;;;4.47;3.33;;;;;;;;;;4303273;33;20126;-69
2021/12/27 00:34:15;;;;;;;4.30;3.03;;;;;;;;;;4290084;33;20463;-83
2021/12/27 00:36:42;;;;;;;4.45;3.08;;;;;;;;;;4290005;33;20513;-83
2021/12/27 00:39:08;;;;;;;6.28;3.50;;;;;;;;;;4289542;33;20104;-81
2021/12/27 00:41:34;;;;;;;4.10;3.30;;;;;;;;;;4263437;33;20460;-69
2021/12/27 00:44:00;;;;;;;3.58;3.20;;;;;;;;;;4288702;33;20108;-69
2021/12/27 00:46:26;;;;;;;3.90;3.25;;;;;;;;;;4288597;33;20114;-69
2021/12/27 00:48:52;;;;;;;3.78;2.87;;;;;;;;;;4289956;33;20111;-69
2021/12/27 00:51:18;;;;;;;2.78;2.40;;;;;;;;;;4277328;33;20198;-69
2021/12/27 00:53:44;;;;;;;4.05;3.47;;;;;;;;;;4277423;33;20107;-69
2021/12/27 00:56:10;;;;;;;3.67;3.15;;;;;;;;;;4304495;33;20217;-70
2021/12/27 00:58:36;;;;;;;3.80;3.40;;;;;;;;;;4299396;33;20118;-70
2021/12/27 01:01:02;;;;;;;4.93;3.53;;;;;;;;;;4305248;33;20118;-69
2021/12/27 01:03:29;;;;;;;24.02;3.92;;;;;;;;;;4300081;33;20172;-70
2021/12/27 01:05:55;;;;;;;3.87;3.47;;;;;;;;;;4290413;33;20199;-69
2021/12/27 01:08:21;;;;;;;6.20;3.75;;;;;;;;;;4300770;33;20122;-69
2021/12/27 01:13:46;;;;;;;;;;;;;;;;;;4272064;33;20550;-69
2021/12/27 01:16:13;;;;;;;5.57;3.60;;;;;;;;;;4280866;33;20387;-68
2021/12/27 01:18:47;;;;;;;6.20;3.90;;;;;;;;;;4291683;33;20106;-68
2021/12/27 01:21:14;;;;;;;4.50;3.70;;;;;;;;;;4305074;33;20087;-69
2021/12/27 01:23:41;;;;;;;4.25;3.70;;;;;;;;;;4303963;33;20146;-68
2021/12/27 01:26:07;;;;;;;5.72;3.47;;;;;;;;;;4303757;33;20116;-68
2021/12/27 01:28:33;;;;;;;4.85;4.00;;;;;;;;;;4305075;33;20115;-68
2021/12/27 01:30:59;;;;;;;4.87;3.80;;;;;;;;;;4291536;33;20162;-69
2021/12/27 01:33:26;;;;;;;5.85;3.85;;;;;;;;;;4279742;33;20111;-69
2021/12/27 01:35:53;;;;;;;4.15;3.75;;;;;;;;;;4291521;33;20772;-69
2021/12/27 01:38:19;;;;;;;4.40;3.85;;;;;;;;;;4291698;33;20575;-69
2021/12/27 01:40:47;;;;;;;4.97;3.80;;;;;;;;;;4304820;33;20451;-69
2021/12/27 01:43:22;;;;;;;6.40;4.32;;;;;;;;;;4291402;33;20112;-69
2021/12/27 01:45:53;;;;;;;5.25;4.22;;;;;;;;;;4279654;33;20134;-71
2021/12/27 01:48:23;;;;;;;5.28;3.50;;;;;;;;;;4291462;33;20125;-70
2021/12/27 01:50:52;;;;;;;4.65;3.90;;;;;;;;;;4291224;33;20125;-70
2021/12/27 01:53:20;;;;;;;5.53;4.50;;;;;;;;;;4291590;33;20114;-70
2021/12/27 01:55:47;;;;;;;5.60;4.32;;;;;;;;;;4297746;33;20095;-70
2021/12/27 01:58:14;;;;;;;4.82;3.97;;;;;;;;;;4290242;33;20111;-70
2021/12/27 02:00:42;;;;;;;4.60;3.92;;;;;;;;;;4289848;33;20107;-69
2021/12/27 02:03:08;;;;;;;4.90;4.35;;;;;;;;;;4277235;33;20088;-71
2021/12/27 02:05:36;;;;;;;4.30;3.90;;;;;;;;;;4276802;33;20107;-69
2021/12/27 02:08:04;;;;;;;6.35;4.15;;;;;;;;;;4290179;33;20123;-68
2021/12/27 02:10:31;;;;;;;4.50;4.10;;;;;;;;;;4276740;33;20194;-70
2021/12/27 02:12:58;;;;;;;6.22;3.87;;;;;;;;;;4277048;33;20163;-69
2021/12/27 02:15:24;;;;;;;5.03;4.47;;;;;;;;;;4290087;33;20460;-69
2021/12/27 02:17:50;;;;;;;6.37;4.82;;;;;;;;;;4290330;33;20104;-71
2021/12/27 02:20:33;;;;;;;5.45;4.35;;;;;;;;;;4276832;33;20127;-71
2021/12/27 02:23:02;;;;;;;5.25;4.18;;;;;;;;;;4303693;33;20104;-71
2021/12/27 02:25:30;;;;;;;5.32;4.45;;;;;;;;;;4304468;33;20129;-71
2021/12/27 02:27:57;;;;;;;5.00;4.28;;;;;;;;;;4304558;33;20149;-71
2021/12/27 02:30:24;;;;;;;5.25;4.62;;;;;;;;;;4290981;33;20189;-70
2021/12/27 02:32:54;;;;;;;6.78;4.47;;;;;;;;;;4303336;33;20114;-70
2021/12/27 02:35:29;;;;;;;6.28;4.45;;;;;;;;;;4304614;33;20584;-69
2021/12/27 02:37:59;;;;;;;5.40;4.40;;;;;;;;;;4279825;33;20236;-70
2021/12/27 02:40:27;;;;;;;5.07;4.20;;;;;;;;;;4291061;33;20123;-71
2021/12/27 02:42:58;;;;;;;5.82;4.80;;;;;;;;;;4304656;33;20104;-70
2021/12/27 02:45:25;;;;;;;6.68;4.43;;;;;;;;;;4303197;33;20118;-71
2021/12/27 02:47:52;;;;;;;5.20;4.25;;;;;;;;;;4303232;33;20092;-71
2021/12/27 02:50:19;;;;;;;4.87;4.12;;;;;;;;;;4290953;33;20118;-71
2021/12/27 02:52:45;;;;;;;6.07;4.72;;;;;;;;;;4291146;33;20187;-71
2021/12/27 02:55:15;;;;;;;6.12;4.78;;;;;;;;;;4304293;33;20179;-71
2021/12/27 02:57:50;;;;;;;5.28;4.28;;;;;;;;;;4291289;33;20107;-70
2021/12/27 03:00:19;;;;;;;5.55;4.93;;;;;;;;;;4302799;33;20111;-71
2021/12/27 03:02:47;;;;;;;4.78;4.37;;;;;;;;;;4304216;33;20106;-69
2021/12/27 03:05:16;;;;;;;6.20;4.43;;;;;;;;;;4304030;33;20110;-69
2021/12/27 03:07:44;;;;;;;5.18;4.68;;;;;;;;;;4291208;33;20210;-68
2021/12/27 03:10:12;;;;;;;6.05;4.95;;;;;;;;;;4304134;33;20144;-68
2021/12/27 03:12:38;;;;;;;5.57;4.68;;;;;;;;;;4304064;33;20103;-70
2021/12/27 03:15:09;;;;;;;5.97;4.37;;;;;;;;;;4302985;33;20179;-70
2021/12/27 03:17:38;;;;;;;6.45;4.60;;;;;;;;;;4304120;33;20193;-71
2021/12/27 03:20:07;;;;;;;6.10;5.00;;;;;;;;;;4302574;33;20118;-70
2021/12/27 03:22:34;;;;;;;5.62;4.70;;;;;;;;;;4302567;33;20179;-69
2021/12/27 03:25:01;;;;;;;5.32;4.45;;;;;;;;;;4290454;33;20107;-73
2021/12/27 03:27:27;;;;;;;6.55;5.10;;;;;;;;;;4304169;33;20095;-72
2021/12/27 03:29:53;;;;;;;5.28;4.60;;;;;;;;;;4290634;33;20531;-71
2021/12/27 03:32:21;;;;;;;6.15;5.10;;;;;;;;;;4303937;33;20522;-72
2021/12/27 03:35:03;;;;;;;5.60;4.87;;;;;;;;;;4302741;33;20441;-72
2021/12/27 03:37:30;;;;;;;5.75;5.05;;;;;;;;;;4290192;33;20551;-76
2021/12/27 03:39:56;;;;;;;6.65;5.32;;;;;;;;;;4290318;33;20119;-73
2021/12/27 03:42:22;;;;;;;8.45;5.80;;;;;;;;;;4303851;33;20119;-74
2021/12/27 03:44:48;;;;;;;6.57;4.90;;;;;;;;;;4278552;33;20088;-77
2021/12/27 03:47:15;;;;;;;5.78;5.00;;;;;;;;;;4303708;33;20088;-76
2021/12/27 03:49:41;;;;;;;8.77;4.90;;;;;;;;;;4303928;33;20208;-73
2021/12/27 03:52:07;;;;;;;11.12;5.93;;;;;;;;;;4278044;33;20544;-73
2021/12/27 03:54:33;;;;;;;5.87;5.20;;;;;;;;;;4303817;33;20447;-73
2021/12/27 03:56:59;;;;;;;6.40;5.55;;;;;;;;;;4303753;33;20107;-73
2021/12/27 04:00:30;;;;;;;6.25;5.20;;;;;;;;;;4303510;33;20209;-73
2021/12/27 04:02:20;;;;;;;7.40;4.93;;;;;;;;;;4293646;33;20110;-73
2021/12/27 04:04:46;;;;;;;5.65;5.07;;;;;;;;;;4290051;33;20127;-71
2021/12/27 04:07:12;;;;;;;6.82;5.28;;;;;;;;;;4278080;33;20104;-73
2021/12/27 04:09:38;;;;;;;5.50;5.00;;;;;;;;;;4303549;33;20095;-72
2021/12/27 04:12:05;;;;;;;5.95;5.12;;;;;;;;;;4290241;33;20110;-72
2021/12/27 04:14:32;;;;;;;6.57;5.80;;;;;;;;;;4289719;33;20149;-72
2021/12/27 04:16:58;;;;;;;6.93;5.35;;;;;;;;;;4303476;33;20207;-72
2021/12/27 04:19:24;;;;;;;5.95;5.32;;;;;;;;;;4303220;33;20553;-73
2021/12/27 04:21:50;;;;;;;5.82;5.10;;;;;;;;;;4303079;33;20198;-71
2021/12/27 04:24:16;;;;;;;7.05;5.65;;;;;;;;;;4303292;33;20296;-74
2021/12/27 04:26:42;;;;;;;6.95;5.35;;;;;;;;;;4289851;33;20107;-65
2021/12/27 04:29:08;;;;;;;6.45;5.45;;;;;;;;;;4303446;33;20117;-66
2021/12/27 04:31:34;;;;;;;6.60;5.50;;;;;;;;;;4303275;33;20866;-66
2021/12/27 04:34:00;;;;;;;8.80;5.22;;;;;;;;;;4303188;33;20533;-65
2021/12/27 04:36:26;;;;;;;6.25;5.00;;;;;;;;;;4302980;33;20428;-64
2021/12/27 04:38:52;;;;;;;6.95;5.65;;;;;;;;;;4303012;33;20458;-66
2021/12/27 04:41:20;;;;;;;6.07;5.47;;;;;;;;;;4302978;33;20107;-66
2021/12/27 04:43:46;;;;;;;6.93;5.28;;;;;;;;;;4301824;33;20290;-66
2021/12/27 04:46:13;;;;;;;5.50;5.00;;;;;;;;;;4289763;33;20111;-65
2021/12/27 04:48:39;;;;;;;7.37;5.00;;;;;;;;;;4303070;33;20222;-65
2021/12/27 04:51:05;;;;;;;6.70;5.53;;;;;;;;;;4303301;33;20120;-64
2021/12/27 04:53:31;;;;;;;9.18;6.55;;;;;;;;;;4303017;33;20115;-64
2021/12/27 04:55:57;;;;;;;6.03;5.43;;;;;;;;;;4303309;33;20112;-65
2021/12/27 04:58:23;;;;;;;6.75;5.53;;;;;;;;;;4302891;33;20193;-66
2021/12/27 05:00:50;;;;;;;7.10;5.62;;;;;;;;;;4302826;33;20099;-65
2021/12/27 05:03:16;;;;;;;6.70;5.45;;;;;;;;;;4302965;33;20519;-76
2021/12/27 05:05:45;;;;;;;7.47;5.53;;;;;;;;;;4289546;33;20111;-76
2021/12/27 05:08:11;;;;;;;6.32;5.45;;;;;;;;;;4302856;33;20111;-75
2021/12/27 05:10:38;;;;;;;6.20;5.57;;;;;;;;;;4289374;33;20192;-76
2021/12/27 05:13:05;;;;;;;7.00;6.07;;;;;;;;;;4289703;33;20108;-73
2021/12/27 05:15:31;;;;;;;6.70;5.78;;;;;;;;;;4289448;33;20190;-74
2021/12/27 05:17:57;;;;;;;7.50;5.80;;;;;;;;;;4303054;33;20142;-76
2021/12/27 05:20:23;;;;;;;6.68;5.65;;;;;;;;;;4289041;33;20190;-76
2021/12/27 05:22:49;;;;;;;7.47;5.90;;;;;;;;;;4302606;33;20445;-76
2021/12/27 05:25:16;;;;;;;6.43;5.68;;;;;;;;;;4289349;33;20104;-74
2021/12/27 05:27:43;;;;;;;8.30;5.87;;;;;;;;;;4289183;33;20582;-75
2021/12/27 05:30:10;;;;;;;10.35;7.47;;;;;;;;;;4289303;33;20202;-72
2021/12/27 05:32:38;;;;;;;6.68;5.35;;;;;;;;;;4302606;33;20531;-74
2021/12/27 05:35:05;;;;;;;6.90;5.97;;;;;;;;;;4304174;33;20129;-74
2021/12/27 05:37:31;;;;;;;8.40;5.87;;;;;;;;;;4303488;33;20570;-69
2021/12/27 05:40:04;;;;;;;7.35;5.40;;;;;;;;;;4291563;33;20456;-70
2021/12/27 05:42:31;;;;;;;8.63;6.10;;;;;;;;;;4280095;33;20185;-71
2021/12/27 05:44:58;;;;;;;6.68;5.93;;;;;;;;;;4291770;33;20160;-71
2021/12/27 05:47:24;;;;;;;7.35;5.75;;;;;;;;;;4291267;33;20201;-71
2021/12/27 05:49:51;;;;;;;7.32;6.35;;;;;;;;;;4291547;33;20127;-71
2021/12/27 05:52:17;;;;;;;8.52;7.25;;;;;;;;;;4291442;33;20189;-71
2021/12/27 05:54:43;;;;;;;6.30;5.70;;;;;;;;;;4291621;33;20103;-69
2021/12/27 05:57:09;;;;;;;8.63;5.62;;;;;;;;;;4304730;33;20106;-71
2021/12/27 05:59:35;;;;;;;6.85;5.53;;;;;;;;;;4304571;33;20182;-69
2021/12/27 06:02:01;;;;;;;6.18;5.30;;;;;;;;;;4291224;33;20087;-70
2021/12/27 06:04:27;;;;;;;8.38;5.57;;;;;;;;;;4291133;33;20120;-71
2021/12/27 06:06:53;;;;;;;7.50;5.30;;;;;;;;;;4291122;33;20199;-71
2021/12/27 06:09:20;;;;;;;7.35;6.18;;;;;;;;;;4303362;33;20206;-71
2021/12/27 06:11:46;;;;;;;7.68;5.50;;;;;;;;;;4291135;33;20518;-70
2021/12/27 06:14:12;;;;;;;6.12;5.53;;;;;;;;;;4304619;33;20201;-71
2021/12/27 06:16:39;;;;;;;6.03;5.40;;;;;;;;;;4304738;33;20103;-72
2021/12/27 06:19:05;;;;;;;7.45;5.68;;;;;;;;;;4304784;33;20119;-71
2021/12/27 06:21:33;;;;;;;7.03;5.90;;;;;;;;;;4291108;33;20519;-70
2021/12/27 06:24:00;;;;;;;6.70;6.00;;;;;;;;;;4291269;33;20126;-70
2021/12/27 06:26:26;;;;;;;6.95;6.05;;;;;;;;;;4291051;33;20115;-70
2021/12/27 06:28:52;;;;;;;7.50;6.25;;;;;;;;;;4291197;33;20111;-70
2021/12/27 06:31:19;;;;;;;6.85;6.15;;;;;;;;;;4304430;33;20107;-70
2021/12/27 06:33:46;;;;;;;7.25;5.90;;;;;;;;;;4304451;33;20112;-70
2021/12/27 06:36:12;;;;;;;6.43;5.57;;;;;;;;;;4304384;33;20172;-70
2021/12/27 06:38:38;;;;;;;6.95;5.47;;;;;;;;;;4290711;33;20099;-70
2021/12/27 06:41:04;;;;;;;5.78;5.18;;;;;;;;;;4302789;33;20103;-69
2021/12/27 06:43:30;;;;;;;6.72;5.70;;;;;;;;;;4290868;33;20190;-69
2021/12/27 06:45:58;;;;;;;7.93;5.93;;;;;;;;;;4303390;33;20107;-68
2021/12/27 06:48:24;;;;;;;6.90;5.10;;;;;;;;;;4290917;33;20122;-68
2021/12/27 06:50:50;;;;;;;6.70;5.97;;;;;;;;;;4304308;33;20107;-69
2021/12/27 06:53:16;;;;;;;8.32;5.82;;;;;;;;;;4304261;33;20463;-69
2021/12/27 06:55:47;;;;;;;6.68;5.97;;;;;;;;;;4303062;33;20115;-69
2021/12/27 06:58:13;;;;;;;7.55;4.75;;;;;;;;;;4302683;33;20111;-69
2021/12/27 07:00:40;;;;;;;5.80;5.18;;;;;;;;;;4303993;33;20100;-69
2021/12/27 07:03:06;;;;;;;6.00;5.12;;;;;;;;;;4290818;33;20103;-68
2021/12/27 07:05:32;;;;;;;6.20;5.47;;;;;;;;;;4302489;33;20103;-69
2021/12/27 07:07:58;;;;;;;6.97;6.03;;;;;;;;;;4302730;33;20439;-70
2021/12/27 07:10:24;;;;;;;6.62;5.78;;;;;;;;;;4302539;33;20119;-68
2021/12/27 07:12:50;;;;;;;5.50;4.82;;;;;;;;;;4303950;33;20475;-68
2021/12/27 07:15:17;;;;;;;5.70;5.12;;;;;;;;;;4290377;33;20126;-69
2021/12/27 07:17:43;;;;;;;5.68;5.05;;;;;;;;;;4303916;33;20122;-67
2021/12/27 07:20:10;;;;;;;7.60;5.87;;;;;;;;;;4289953;33;20187;-69
2021/12/27 07:22:36;;;;;;;6.78;5.72;;;;;;;;;;4302359;33;20640;-69
2021/12/27 07:25:03;;;;;;;5.95;5.15;;;;;;;;;;4303788;33;20530;-66
2021/12/27 07:27:29;;;;;;;7.22;5.50;;;;;;;;;;4303582;33;20094;-66
2021/12/27 07:29:55;;;;;;;6.15;5.40;;;;;;;;;;4303610;33;20107;-65
2021/12/27 07:32:21;;;;;;;6.03;5.37;;;;;;;;;;4303654;33;20092;-67
2021/12/27 07:34:48;;;;;;;5.85;5.22;;;;;;;;;;4303763;33;20522;-67
2021/12/27 07:37:16;;;;;;;5.32;4.82;;;;;;;;;;4303662;33;20102;-67
2021/12/27 07:39:43;;;;;;;8.13;5.55;;;;;;;;;;4303703;33;20111;-64
2021/12/27 07:42:09;;;;;;;6.20;5.10;;;;;;;;;;4290244;33;20114;-68
2021/12/27 07:44:35;;;;;;;5.47;4.90;;;;;;;;;;4304068;33;20110;-66
2021/12/27 07:47:01;;;;;;;6.57;5.35;;;;;;;;;;4302458;33;20521;-67
2021/12/27 07:49:27;;;;;;;7.50;5.45;;;;;;;;;;4303910;33;20099;-67
2021/12/27 07:51:53;;;;;;;6.75;5.65;;;;;;;;;;4302679;33;20499;-66
2021/12/27 07:54:19;;;;;;;6.60;5.62;;;;;;;;;;4290203;33;20551;-68
2021/12/27 07:56:45;;;;;;;7.65;5.07;;;;;;;;;;4303506;33;20083;-71
2021/12/27 07:59:12;;;;;;;9.45;6.20;;;;;;;;;;4289742;33;20191;-71
2021/12/27 08:01:40;;;;;;;5.90;5.30;;;;;;;;;;4276625;33;20142;-72
2021/12/27 08:04:08;;;;;;;6.65;5.45;;;;;;;;;;4276938;33;20158;-71
2021/12/27 08:06:35;;;;;;;6.60;5.87;;;;;;;;;;4276999;33;20201;-71
2021/12/27 08:09:01;;;;;;;7.37;5.93;;;;;;;;;;4301738;33;20119;-71
2021/12/27 08:11:27;;;;;;;6.15;5.43;;;;;;;;;;4302917;33;20842;-73
2021/12/27 08:13:53;;;;;;;6.43;5.03;;;;;;;;;;4289482;33;20117;-72
2021/12/27 08:16:24;;;;;;;8.73;5.37;;;;;;;;;;4290275;33;20127;-71
2021/12/27 08:18:56;;;;;;;6.70;5.97;;;;;;;;;;4302366;33;20521;-72
2021/12/27 08:21:23;;;;;;;9.95;6.00;;;;;;;;;;4288145;33;20439;-71
2021/12/27 08:23:50;;;;;;;7.80;5.90;;;;;;;;;;4289738;33;20194;-68
2021/12/27 08:26:16;;;;;;;7.82;5.47;;;;;;;;;;4289738;33;20197;-68
2021/12/27 08:28:43;;;;;;;6.45;5.37;;;;;;;;;;4289717;33;20112;-71
2021/12/27 08:31:09;;;;;;;7.43;5.62;;;;;;;;;;4303187;33;20565;-67
2021/12/27 08:33:35;;;;;;;7.28;5.43;;;;;;;;;;4303373;33;20131;-66
2021/12/27 08:36:01;;;;;;;7.85;5.35;;;;;;;;;;4289563;33;20130;-67
2021/12/27 08:38:27;;;;;;;7.25;5.95;;;;;;;;;;4302957;33;20187;-67
2021/12/27 08:40:53;;;;;;;7.43;5.90;;;;;;;;;;4300788;33;20146;-69
2021/12/27 08:43:19;;;;;;;6.28;5.60;;;;;;;;;;4288172;33;20125;-69
2021/12/27 08:45:46;;;;;;;8.25;5.97;;;;;;;;;;4302644;33;20175;-67
2021/12/27 08:48:12;;;;;;;8.38;5.45;;;;;;;;;;4264832;33;20107;-67
2021/12/27 08:50:39;;;;;;;7.75;5.75;;;;;;;;;;4262878;33;20208;-68
2021/12/27 08:53:06;;;;;;;6.62;5.97;;;;;;;;;;4290045;33;20131;-68
2021/12/27 08:55:33;;;;;;;7.90;6.53;;;;;;;;;;4270324;33;20194;-67
2021/12/27 08:57:59;;;;;;;7.78;5.68;;;;;;;;;;4282661;33;20099;-68
2021/12/27 09:00:25;;;;;;;7.40;5.87;;;;;;;;;;4270735;33;20112;-68
2021/12/27 09:02:51;;;;;;;7.53;5.30;;;;;;;;;;4282368;33;20096;-68
2021/12/27 09:05:18;;;;;;;6.45;5.62;;;;;;;;;;4277059;33;20114;-69
2021/12/27 09:07:44;;;;;;;6.60;5.45;;;;;;;;;;4276455;33;20104;-68
2021/12/27 09:10:11;;;;;;;7.15;5.45;;;;;;;;;;4264088;33;20507;-68
2021/12/27 09:12:38;;;;;;;8.60;5.37;;;;;;;;;;4283650;33;20107;-70
2021/12/27 09:15:05;;;;;;;6.37;5.12;;;;;;;;;;4275884;33;20087;-67
2021/12/27 09:17:32;;;;;;;6.60;5.87;;;;;;;;;;4283701;33;20116;-69
2021/12/27 09:19:58;;;;;;;6.25;5.65;;;;;;;;;;4300929;33;20104;-68
2021/12/27 09:22:24;;;;;;;6.03;5.37;;;;;;;;;;4296797;33;20114;-68
2021/12/27 09:24:50;;;;;;;6.53;5.30;;;;;;;;;;4296041;33;20104;-68
2021/12/27 09:27:18;;;;;;;6.45;5.20;;;;;;;;;;4285731;33;20127;-69
2021/12/27 09:29:45;;;;;;;7.60;5.43;;;;;;;;;;4268075;33;20112;-68
2021/12/27 09:32:12;;;;;;;6.40;5.53;;;;;;;;;;4282880;33;20550;-69
2021/12/27 09:34:39;;;;;;;7.32;5.45;;;;;;;;;;4279563;33;20103;-70
2021/12/27 09:37:06;;;;;;;6.35;5.07;;;;;;;;;;4291237;33;20217;-70
2021/12/27 09:39:33;;;;;;;6.93;5.45;;;;;;;;;;4277580;33;20522;-69
2021/12/27 09:42:00;;;;;;;6.22;5.28;;;;;;;;;;4297424;33;20099;-69
2021/12/27 09:44:26;;;;;;;6.85;5.40;;;;;;;;;;4291317;33;20102;-70
2021/12/27 09:46:53;;;;;;;6.45;5.20;;;;;;;;;;4296436;33;20107;-69
2021/12/27 09:49:20;;;;;;;7.00;4.95;;;;;;;;;;4289240;33;20112;-70
2021/12/27 09:51:47;;;;;;;6.05;5.28;;;;;;;;;;4288316;33;20179;-71
2021/12/27 09:54:14;;;;;;;7.40;5.82;;;;;;;;;;4281992;33;20214;-69
2021/12/27 09:56:41;;;;;;;7.12;5.68;;;;;;;;;;4275749;33;20131;-69
2021/12/27 09:59:07;;;;;;;6.35;5.55;;;;;;;;;;4272068;33;20190;-70
2021/12/27 10:01:34;;;;;;;6.10;5.28;;;;;;;;;;4290891;33;20479;-70
2021/12/27 10:04:01;;;;;;;8.10;5.18;;;;;;;;;;4290316;33;20087;-70
2021/12/27 10:06:28;;;;;;;6.70;5.57;;;;;;;;;;4273210;33;20100;-71
2021/12/27 10:09:00;;;;;;;5.78;5.18;;;;;;;;;;4264783;33;20105;-70
2021/12/27 10:11:31;;;;;;;10.30;6.10;;;;;;;;;;4253211;33;20119;-70
2021/12/27 10:14:03;;;;;;;6.72;5.45;;;;;;;;;;4253945;33;20233;-70
2021/12/27 10:16:32;;;;;;;6.95;5.30;;;;;;;;;;4260839;33;20202;-70
2021/12/27 10:19:00;;;;;;;7.37;5.60;;;;;;;;;;4248803;33;20155;-70
2021/12/27 10:21:27;;;;;;;7.37;6.45;;;;;;;;;;4289188;33;20190;-70
2021/12/27 10:24:09;;;;;;;7.03;5.95;;;;;;;;;;4279073;33;20194;-71
2021/12/27 10:26:36;;;;;;;7.60;6.25;;;;;;;;;;4281003;33;20197;-70
2021/12/27 10:29:23;;;;;;;10.40;5.62;;;;;;;;;;4305122;33;20142;-70
2021/12/27 10:31:56;;;;;;;6.65;5.60;;;;;;;;;;4280834;33;20083;-70
2021/12/27 10:34:34;;;;;;;6.85;5.50;;;;;;;;;;4292264;33;20134;-69
2021/12/27 10:37:09;;;;;;;9.00;5.90;;;;;;;;;;4271298;33;20160;-69
2021/12/27 10:39:48;;;;;;;6.90;6.12;;;;;;;;;;4264547;33;20144;-69
2021/12/27 10:42:22;;;;;;;8.88;6.85;;;;;;;;;;4286490;33;20091;-69
2021/12/27 10:44:51;;;;;;;10.20;6.18;;;;;;;;;;4267201;33;20178;-68
2021/12/27 10:47:34;;;;;;;7.40;6.05;;;;;;;;;;4278634;33;20122;-70
2021/12/27 10:50:27;;;;;;;8.68;5.95;;;;;;;;;;4290125;33;20088;-69
2021/12/27 10:52:56;;;;;;;8.57;7.10;;;;;;;;;;4297689;33;20146;-72
2021/12/27 10:55:27;;;;;;;9.88;7.28;;;;;;;;;;4290334;33;20138;-69
2021/12/27 10:58:12;;;;;;;10.23;8.77;;;;;;;;;;4276068;33;20099;-68
2021/12/27 11:00:39;;;;;;;8.20;6.85;;;;;;;;;;4276522;33;20095;-69
2021/12/27 11:03:06;;;;;;;7.87;5.78;;;;;;;;;;4290499;33;20115;-68
2021/12/27 11:05:34;;;;;;;7.97;6.07;;;;;;;;;;4303464;33;20083;-68
2021/12/27 11:08:04;;;;;;;7.50;5.95;;;;;;;;;;4301720;33;20209;-68
2021/12/27 11:10:33;;;;;;;7.22;5.90;;;;;;;;;;4275478;33;20135;-68
2021/12/27 11:13:00;;;;;;;9.98;6.50;;;;;;;;;;4301331;33;20112;-68
2021/12/27 11:15:30;;;;;;;6.32;5.25;;;;;;;;;;4300062;33;20119;-69
2021/12/27 11:17:56;;;;;;;6.12;5.43;;;;;;;;;;4278377;33;20090;-69
2021/12/27 11:20:23;;;;;;;9.00;6.03;;;;;;;;;;4301437;33;20202;-67
2021/12/27 11:22:51;;;;;;;9.27;6.12;;;;;;;;;;4279460;33;20139;-69
2021/12/27 11:25:22;;;;;;;8.48;5.97;;;;;;;;;;4274409;33;20123;-68
2021/12/27 11:27:48;;;;;;;7.57;6.12;;;;;;;;;;4293223;33;20115;-68
2021/12/27 11:30:16;;;;;;;9.68;7.47;;;;;;;;;;4290376;33;20202;-74
2021/12/27 11:33:02;;;;;;;7.22;6.00;;;;;;;;;;4288539;33;20529;-75
2021/12/27 11:35:36;;;;;;;7.75;5.75;;;;;;;;;;4287478;33;20123;-82
2021/12/27 11:38:03;;;;;;;7.93;5.65;;;;;;;;;;4304047;33;20129;-76
2021/12/27 11:40:45;;;;;;;8.38;5.60;;;;;;;;;;4303910;33;20466;-76
2021/12/27 11:43:12;;;;;;;8.48;5.62;;;;;;;;;;4304521;33;20115;-81
2021/12/27 11:45:48;;;;;;;36.03;21.80;;;;;;;;;;4304248;33;20107;-76
2021/12/27 11:48:19;;;;;;;8.52;6.22;;;;;;;;;;4304379;33;20582;-81
2021/12/27 11:50:57;;;;;;;7.15;6.05;;;;;;;;;;4300024;33;20084;-78
2021/12/27 11:53:28;;;;;;;6.55;5.87;;;;;;;;;;4296759;33;20217;-79
2021/12/27 11:55:54;;;;;;;7.03;6.25;;;;;;;;;;4263925;33;20452;-77
2021/12/27 11:58:39;;;;;;;10.63;6.32;;;;;;;;;;4283319;33;20533;-75
2021/12/27 12:01:26;;;;;;;9.80;5.95;;;;;;;;;;4297396;33;20195;-73
2021/12/27 12:03:58;;;;;;;7.65;5.62;;;;;;;;;;4276457;33;20581;-76
2021/12/27 12:06:41;;;;;;;6.72;5.50;;;;;;;;;;4278031;33;20107;-76
2021/12/27 12:09:18;;;;;;;9.07;5.87;;;;;;;;;;4278007;33;20115;-66
2021/12/27 12:11:46;;;;;;;7.93;6.37;;;;;;;;;;4289039;33;20175;-69
2021/12/27 12:14:35;;;;;;;8.82;5.87;;;;;;;;;;4277711;33;20103;-70
2021/12/27 12:17:04;;;;;;;6.75;5.90;;;;;;;;;;4303167;33;20205;-68
2021/12/27 12:19:45;;;;;;;9.65;6.03;;;;;;;;;;4277632;33;20129;-70
2021/12/27 12:22:42;;;;;;;7.00;5.12;;;;;;;;;;4289247;33;20114;-70
2021/12/27 12:25:12;;;;;;;6.12;4.95;;;;;;;;;;4274036;33;20213;-67
2021/12/27 12:28:00;;;;;;;6.32;4.75;;;;;;;;;;4300875;33;20499;-68
2021/12/27 12:30:37;;;;;;;6.70;5.30;;;;;;;;;;4288331;33;20087;-68
2021/12/27 12:33:15;;;;;;;6.18;5.22;;;;;;;;;;4277072;33;20198;-68
2021/12/27 12:35:50;;;;;;;6.65;5.43;;;;;;;;;;4276891;33;20142;-68
2021/12/27 12:38:25;;;;;;;7.60;5.65;;;;;;;;;;4280320;33;20232;-68
2021/12/27 12:41:12;;;;;;;7.68;5.05;;;;;;;;;;4291418;33;20546;-69
2021/12/27 12:43:44;;;;;;;6.95;5.60;;;;;;;;;;4289075;33;20107;-69
2021/12/27 12:46:15;;;;;;;6.03;4.82;;;;;;;;;;4261632;33;20100;-69
2021/12/27 12:48:42;;;;;;;7.95;4.90;;;;;;;;;;4275294;33;20122;-69
2021/12/27 12:51:08;;;;;;;5.60;5.05;;;;;;;;;;4301989;33;20134;-69
2021/12/27 12:53:34;;;;;;;8.25;5.10;;;;;;;;;;4304910;33;20209;-69
2021/12/27 12:56:16;;;;;;;6.03;5.37;;;;;;;;;;4289838;33;20120;-68
2021/12/27 12:58:42;;;;;;;5.95;5.30;;;;;;;;;;4265173;33;20131;-69
2021/12/27 13:01:09;;;;;;;6.25;5.07;;;;;;;;;;4315512;33;20114;-71
2021/12/27 13:03:36;;;;;;;6.45;4.65;;;;;;;;;;4306786;33;20103;-74
2021/12/27 13:06:09;;;;;;;5.72;5.07;;;;;;;;;;4310324;33;20111;-73
2021/12/27 13:08:35;;;;;;;5.82;4.90;;;;;;;;;;4306024;33;20098;-79
2021/12/27 13:11:02;;;;;;;6.18;5.32;;;;;;;;;;4308503;33;20119;-78
2021/12/27 13:13:29;;;;;;;7.30;4.85;;;;;;;;;;4284793;33;20116;-79
2021/12/27 13:15:58;;;;;;;5.25;4.62;;;;;;;;;;4286080;33;20513;-79
2021/12/27 13:18:30;;;;;;;4.60;4.07;;;;;;;;;;4276640;33;20114;-74
2021/12/27 13:20:58;;;;;;;5.18;4.68;;;;;;;;;;4272660;33;20520;-78
2021/12/27 13:23:29;;;;;;;6.97;5.62;;;;;;;;;;4282314;33;20115;-76
2021/12/27 13:26:00;;;;;;;5.47;4.85;;;;;;;;;;4288099;33;20119;-75
2021/12/27 13:28:29;;;;;;;6.30;5.12;;;;;;;;;;4290935;33;20224;-76
2021/12/27 13:31:01;;;;;;;6.40;4.90;;;;;;;;;;4298856;33;20101;-76
2021/12/27 13:33:36;;;;;;;8.30;5.07;;;;;;;;;;4305336;33;20521;-77
2021/12/27 13:36:05;;;;;;;8.25;4.97;;;;;;;;;;4318916;33;20103;-76
2021/12/27 13:38:36;;;;;;;5.40;4.90;;;;;;;;;;4293424;33;20096;-71
2021/12/27 13:41:09;;;;;;;9.60;8.63;;;;;;;;;;4295545;33;20091;-64
2021/12/27 13:43:47;;;;;;;8.85;8.05;;;;;;;;;;4304417;33;20126;-66
2021/12/27 13:46:15;;;;;;;7.70;6.85;;;;;;;;;;4298826;33;20123;-66
2021/12/27 13:48:42;;;;;;;6.47;5.72;;;;;;;;;;4291198;33;20616;-67
2021/12/27 13:51:08;;;;;;;5.72;4.62;;;;;;;;;;4298340;33;20114;-65
2021/12/27 13:53:35;;;;;;;6.70;4.97;;;;;;;;;;4303380;33;20115;-66
2021/12/27 13:56:14;;;;;;;6.10;5.05;;;;;;;;;;4291464;33;20432;-64
2021/12/27 13:58:43;;;;;;;6.22;4.80;;;;;;;;;;4304655;33;20107;-66
2021/12/27 14:01:12;;;;;;;7.05;5.53;;;;;;;;;;4302954;33;20427;-67
2021/12/27 14:03:38;;;;;;;6.43;5.53;;;;;;;;;;4302977;33;20125;-67
2021/12/27 14:06:05;;;;;;;7.55;5.68;;;;;;;;;;4303212;33;20123;-65
2021/12/27 14:08:31;;;;;;;7.20;5.10;;;;;;;;;;4304517;33;20153;-65
2021/12/27 14:11:01;;;;;;;6.37;5.20;;;;;;;;;;4290943;33;20091;-66
2021/12/27 14:14:03;;;;;;;5.25;4.70;;;;;;;;;;4304130;33;20114;-66
2021/12/27 14:16:39;;;;;;;5.22;4.60;;;;;;;;;;4244957;33;20208;-72
2021/12/27 14:19:12;;;;;;;6.43;4.80;;;;;;;;;;4296143;33;20092;-74
2021/12/27 14:21:57;;;;;;;7.50;5.12;;;;;;;;;;4298350;33;20209;-73
2021/12/27 14:24:31;;;;;;;5.78;4.95;;;;;;;;;;4303055;33;20229;-74
2021/12/27 14:26:58;;;;;;;5.65;4.97;;;;;;;;;;4298792;33;20451;-73
2021/12/27 14:29:25;;;;;;;7.05;5.05;;;;;;;;;;4291320;33;20123;-74
2021/12/27 14:31:54;;;;;;;6.45;4.95;;;;;;;;;;4279346;33;20447;-73
2021/12/27 14:34:52;;;;;;;8.50;5.25;;;;;;;;;;4279002;33;20538;-67
2021/12/27 14:37:18;;;;;;;5.90;5.12;;;;;;;;;;4291694;33;20098;-68
2021/12/27 14:39:45;;;;;;;6.37;5.57;;;;;;;;;;4289671;33;20107;-67
2021/12/27 14:42:12;;;;;;;5.57;4.95;;;;;;;;;;4288400;33;20104;-67
2021/12/27 14:44:50;;;;;;;6.00;5.37;;;;;;;;;;4275725;33;20115;-73
2021/12/27 14:47:19;;;;;;;6.43;5.18;;;;;;;;;;4288223;33;20610;-73
2021/12/27 14:49:45;;;;;;;6.72;5.10;;;;;;;;;;4276106;33;20087;-70
2021/12/27 14:52:12;;;;;;;5.80;5.22;;;;;;;;;;4275857;33;20209;-65
2021/12/27 14:54:39;;;;;;;6.85;5.45;;;;;;;;;;4298673;33;20271;-65
2021/12/27 14:57:05;;;;;;;5.93;5.05;;;;;;;;;;4289574;33;20109;-65
2021/12/27 14:59:32;;;;;;;7.12;5.53;;;;;;;;;;4292230;33;20502;-65
2021/12/27 15:01:58;;;;;;;6.37;5.65;;;;;;;;;;4298341;33;20577;-64
2021/12/27 15:04:24;;;;;;;7.37;4.80;;;;;;;;;;4303808;33;20092;-65
2021/12/27 15:06:50;;;;;;;6.12;5.40;;;;;;;;;;4297228;33;20509;-64
2021/12/27 15:09:16;;;;;;;6.37;5.35;;;;;;;;;;4303795;33;20127;-64
2021/12/27 15:11:45;;;;;;;6.87;5.25;;;;;;;;;;4297908;33;20135;-65
2021/12/27 15:14:11;;;;;;;7.70;5.37;;;;;;;;;;4303872;33;20115;-65